Terminal Aerodrome Forecast
Issued by NWS Mt. Holly, NJ

Home | Current Version | Previous Version | Text Only | Print | Product List | Glossary On
Versions: 1 2 3 4 5 6 7 8 9 10 11 12 13 14 15 16 17 18 19 20 21 22 23
170
FTUS41 KPHI 272327
TAFACY
TAF
KACY 272327Z 2800/2824 17010KT P6SM BKN250
     FM280500 19008KT P6SM BKN060
     FM280800 23008KT P6SM BKN045
      TEMPO 2808/2811 -SHRA OVC025
     FM281100 27008KT P6SM BKN035
     FM281300 27008KT P6SM SCT050
     FM282100 22006KT P6SM SCT050=

USA.gov is the U.S. government's official web portal to all federal, state and local government web resources and services.